sensor_id;sensor_type;location;lat;lon;timestamp;P1;durP1;ratioP1;P2;durP2;ratioP2
21152;SDS011;10734;44.792;20.482;2023-02-20T00:01:20;10.07;;;5.90;;
21152;SDS011;10734;44.792;20.482;2023-02-20T00:03:47;13.35;;;6.60;;
21152;SDS011;10734;44.792;20.482;2023-02-20T00:06:13;10.63;;;5.95;;
21152;SDS011;10734;44.792;20.482;2023-02-20T00:08:40;12.40;;;6.55;;
21152;SDS011;10734;44.792;20.482;2023-02-20T00:11:06;12.18;;;6.45;;
21152;SDS011;10734;44.792;20.482;2023-02-20T00:13:33;8.90;;;5.05;;
21152;SDS011;10734;44.792;20.482;2023-02-20T00:15:59;8.77;;;6.13;;
21152;SDS011;10734;44.792;20.482;2023-02-20T00:18:26;10.63;;;5.00;;
21152;SDS011;10734;44.792;20.482;2023-02-20T00:20:52;7.88;;;4.47;;
21152;SDS011;10734;44.792;20.482;2023-02-20T00:23:19;7.15;;;4.85;;
21152;SDS011;10734;44.792;20.482;2023-02-20T00:25:45;8.15;;;4.40;;
21152;SDS011;10734;44.792;20.482;2023-02-20T00:28:12;8.23;;;4.63;;
21152;SDS011;10734;44.792;20.482;2023-02-20T00:30:38;6.82;;;3.88;;
21152;SDS011;10734;44.792;20.482;2023-02-20T00:33:05;7.35;;;3.25;;
21152;SDS011;10734;44.792;20.482;2023-02-20T00:35:31;6.10;;;3.38;;
21152;SDS011;10734;44.792;20.482;2023-02-20T00:37:58;4.80;;;2.30;;
21152;SDS011;10734;44.792;20.482;2023-02-20T00:40:24;3.70;;;2.28;;
21152;SDS011;10734;44.792;20.482;2023-02-20T00:42:51;1.63;;;1.13;;
21152;SDS011;10734;44.792;20.482;2023-02-20T00:45:17;4.90;;;1.38;;
21152;SDS011;10734;44.792;20.482;2023-02-20T00:47:44;2.00;;;1.13;;
21152;SDS011;10734;44.792;20.482;2023-02-20T00:50:12;0.65;;;0.52;;
21152;SDS011;10734;44.792;20.482;2023-02-20T00:52:39;2.45;;;0.73;;
21152;SDS011;10734;44.792;20.482;2023-02-20T00:55:06;0.80;;;0.60;;
21152;SDS011;10734;44.792;20.482;2023-02-20T00:57:32;0.98;;;0.70;;
21152;SDS011;10734;44.792;20.482;2023-02-20T00:59:59;2.85;;;0.88;;
21152;SDS011;10734;44.792;20.482;2023-02-20T01:02:25;4.57;;;0.90;;
21152;SDS011;10734;44.792;20.482;2023-02-20T01:04:52;1.13;;;0.60;;
21152;SDS011;10734;44.792;20.482;2023-02-20T01:07:18;1.83;;;0.68;;
21152;SDS011;10734;44.792;20.482;2023-02-20T01:09:45;0.90;;;0.47;;
21152;SDS011;10734;44.792;20.482;2023-02-20T01:12:12;0.93;;;0.50;;
21152;SDS011;10734;44.792;20.482;2023-02-20T01:14:38;0.90;;;0.60;;
21152;SDS011;10734;44.792;20.482;2023-02-20T01:17:07;0.80;;;0.50;;
21152;SDS011;10734;44.792;20.482;2023-02-20T01:19:33;0.88;;;0.55;;
21152;SDS011;10734;44.792;20.482;2023-02-20T01:21:59;1.90;;;0.40;;
21152;SDS011;10734;44.792;20.482;2023-02-20T01:24:26;0.95;;;0.60;;
21152;SDS011;10734;44.792;20.482;2023-02-20T01:26:52;1.10;;;0.70;;
21152;SDS011;10734;44.792;20.482;2023-02-20T01:29:19;1.20;;;0.70;;
21152;SDS011;10734;44.792;20.482;2023-02-20T01:31:49;1.10;;;0.50;;
21152;SDS011;10734;44.792;20.482;2023-02-20T01:34:16;1.30;;;0.60;;
21152;SDS011;10734;44.792;20.482;2023-02-20T01:36:44;1.33;;;0.70;;
21152;SDS011;10734;44.792;20.482;2023-02-20T01:39:11;2.35;;;0.60;;
21152;SDS011;10734;44.792;20.482;2023-02-20T01:41:37;2.97;;;0.80;;
21152;SDS011;10734;44.792;20.482;2023-02-20T01:44:04;2.17;;;0.70;;
21152;SDS011;10734;44.792;20.482;2023-02-20T01:46:40;1.98;;;0.73;;
21152;SDS011;10734;44.792;20.482;2023-02-20T01:49:11;0.60;;;0.50;;
21152;SDS011;10734;44.792;20.482;2023-02-20T01:51:40;1.33;;;0.70;;
21152;SDS011;10734;44.792;20.482;2023-02-20T01:54:09;0.60;;;0.52;;
21152;SDS011;10734;44.792;20.482;2023-02-20T01:56:36;1.05;;;0.60;;
21152;SDS011;10734;44.792;20.482;2023-02-20T01:59:03;0.60;;;0.55;;
21152;SDS011;10734;44.792;20.482;2023-02-20T02:01:32;2.63;;;0.65;;
21152;SDS011;10734;44.792;20.482;2023-02-20T02:04:00;1.45;;;0.60;;
21152;SDS011;10734;44.792;20.482;2023-02-20T02:06:28;1.13;;;0.50;;
21152;SDS011;10734;44.792;20.482;2023-02-20T02:08:55;1.95;;;0.93;;
21152;SDS011;10734;44.792;20.482;2023-02-20T02:11:23;0.85;;;0.60;;
21152;SDS011;10734;44.792;20.482;2023-02-20T02:13:50;1.50;;;0.80;;
21152;SDS011;10734;44.792;20.482;2023-02-20T02:18:58;0.90;;;0.60;;
21152;SDS011;10734;44.792;20.482;2023-02-20T02:24:08;1.00;;;0.80;;
21152;SDS011;10734;44.792;20.482;2023-02-20T02:40:01;2.83;;;1.80;;
21152;SDS011;10734;44.792;20.482;2023-02-20T02:50:16;2.00;;;1.02;;
21152;SDS011;10734;44.792;20.482;2023-02-20T02:52:44;2.10;;;1.75;;
21152;SDS011;10734;44.792;20.482;2023-02-20T02:55:27;3.83;;;3.40;;
21152;SDS011;10734;44.792;20.482;2023-02-20T02:57:54;6.68;;;4.63;;
21152;SDS011;10734;44.792;20.482;2023-02-20T03:00:22;5.30;;;4.80;;
21152;SDS011;10734;44.792;20.482;2023-02-20T03:02:56;5.25;;;4.72;;
21152;SDS011;10734;44.792;20.482;2023-02-20T03:05:25;4.75;;;4.13;;
21152;SDS011;10734;44.792;20.482;2023-02-20T03:08:16;5.00;;;2.87;;
21152;SDS011;10734;44.792;20.482;2023-02-20T03:11:11;3.63;;;1.48;;
21152;SDS011;10734;44.792;20.482;2023-02-20T03:13:39;1.35;;;0.82;;
21152;SDS011;10734;44.792;20.482;2023-02-20T03:16:29;1.70;;;1.00;;
21152;SDS011;10734;44.792;20.482;2023-02-20T03:18:58;1.57;;;1.00;;
21152;SDS011;10734;44.792;20.482;2023-02-20T03:21:26;1.15;;;0.77;;
21152;SDS011;10734;44.792;20.482;2023-02-20T03:23:56;1.33;;;0.90;;
21152;SDS011;10734;44.792;20.482;2023-02-20T03:26:33;3.22;;;1.00;;
21152;SDS011;10734;44.792;20.482;2023-02-20T03:29:02;1.55;;;1.10;;
21152;SDS011;10734;44.792;20.482;2023-02-20T03:31:32;1.20;;;0.70;;
21152;SDS011;10734;44.792;20.482;2023-02-20T03:36:56;2.95;;;1.00;;
21152;SDS011;10734;44.792;20.482;2023-02-20T03:39:44;1.55;;;1.08;;
21152;SDS011;10734;44.792;20.482;2023-02-20T03:42:32;3.28;;;1.30;;
21152;SDS011;10734;44.792;20.482;2023-02-20T03:45:18;1.77;;;1.02;;
21152;SDS011;10734;44.792;20.482;2023-02-20T03:47:46;4.32;;;1.58;;
21152;SDS011;10734;44.792;20.482;2023-02-20T03:50:14;3.50;;;1.55;;
21152;SDS011;10734;44.792;20.482;2023-02-20T03:52:41;2.08;;;1.30;;
21152;SDS011;10734;44.792;20.482;2023-02-20T03:55:07;3.50;;;1.48;;
21152;SDS011;10734;44.792;20.482;2023-02-20T03:57:41;2.65;;;1.10;;
21152;SDS011;10734;44.792;20.482;2023-02-20T04:00:10;2.05;;;1.17;;
21152;SDS011;10734;44.792;20.482;2023-02-20T04:02:39;1.30;;;1.08;;
21152;SDS011;10734;44.792;20.482;2023-02-20T04:05:20;2.25;;;1.20;;
21152;SDS011;10734;44.792;20.482;2023-02-20T04:07:49;1.48;;;1.15;;
21152;SDS011;10734;44.792;20.482;2023-02-20T04:10:27;4.10;;;1.33;;
21152;SDS011;10734;44.792;20.482;2023-02-20T04:12:55;3.25;;;1.40;;
21152;SDS011;10734;44.792;20.482;2023-02-20T04:15:22;1.70;;;1.20;;
21152;SDS011;10734;44.792;20.482;2023-02-20T04:17:59;2.47;;;1.05;;
21152;SDS011;10734;44.792;20.482;2023-02-20T04:20:27;2.33;;;1.20;;
21152;SDS011;10734;44.792;20.482;2023-02-20T04:22:55;2.00;;;1.30;;
21152;SDS011;10734;44.792;20.482;2023-02-20T04:28:05;3.17;;;0.93;;
21152;SDS011;10734;44.792;20.482;2023-02-20T04:30:32;2.13;;;1.13;;
21152;SDS011;10734;44.792;20.482;2023-02-20T04:32:58;2.30;;;1.40;;
21152;SDS011;10734;44.792;20.482;2023-02-20T04:35:25;3.78;;;1.40;;
21152;SDS011;10734;44.792;20.482;2023-02-20T04:37:51;2.05;;;1.00;;
21152;SDS011;10734;44.792;20.482;2023-02-20T04:40:19;4.13;;;1.40;;
21152;SDS011;10734;44.792;20.482;2023-02-20T04:42:46;2.13;;;1.27;;
21152;SDS011;10734;44.792;20.482;2023-02-20T04:45:12;1.65;;;1.02;;
21152;SDS011;10734;44.792;20.482;2023-02-20T04:47:39;3.78;;;1.10;;
21152;SDS011;10734;44.792;20.482;2023-02-20T04:50:05;2.25;;;1.50;;
21152;SDS011;10734;44.792;20.482;2023-02-20T04:52:32;7.95;;;1.48;;
21152;SDS011;10734;44.792;20.482;2023-02-20T04:54:58;2.88;;;1.30;;
21152;SDS011;10734;44.792;20.482;2023-02-20T04:57:25;2.25;;;1.35;;
21152;SDS011;10734;44.792;20.482;2023-02-20T04:59:51;2.75;;;1.30;;
21152;SDS011;10734;44.792;20.482;2023-02-20T05:02:18;2.25;;;1.50;;
21152;SDS011;10734;44.792;20.482;2023-02-20T05:04:44;2.72;;;1.40;;
21152;SDS011;10734;44.792;20.482;2023-02-20T05:07:11;5.15;;;1.65;;
21152;SDS011;10734;44.792;20.482;2023-02-20T05:09:37;3.88;;;1.60;;
21152;SDS011;10734;44.792;20.482;2023-02-20T05:12:04;8.27;;;1.67;;
21152;SDS011;10734;44.792;20.482;2023-02-20T05:14:30;2.28;;;1.23;;
21152;SDS011;10734;44.792;20.482;2023-02-20T05:16:57;2.83;;;1.40;;
21152;SDS011;10734;44.792;20.482;2023-02-20T05:19:23;3.13;;;1.92;;
21152;SDS011;10734;44.792;20.482;2023-02-20T05:21:50;2.58;;;1.63;;
21152;SDS011;10734;44.792;20.482;2023-02-20T05:24:34;4.13;;;1.60;;
21152;SDS011;10734;44.792;20.482;2023-02-20T05:27:01;2.88;;;1.45;;
21152;SDS011;10734;44.792;20.482;2023-02-20T05:29:27;3.78;;;2.20;;
21152;SDS011;10734;44.792;20.482;2023-02-20T05:31:54;4.22;;;1.80;;
21152;SDS011;10734;44.792;20.482;2023-02-20T05:34:20;3.97;;;1.52;;
21152;SDS011;10734;44.792;20.482;2023-02-20T05:36:48;3.47;;;1.70;;
21152;SDS011;10734;44.792;20.482;2023-02-20T05:39:14;3.95;;;1.73;;
21152;SDS011;10734;44.792;20.482;2023-02-20T05:41:41;5.13;;;2.05;;
21152;SDS011;10734;44.792;20.482;2023-02-20T05:44:08;3.50;;;1.80;;
21152;SDS011;10734;44.792;20.482;2023-02-20T05:46:38;3.58;;;2.20;;
21152;SDS011;10734;44.792;20.482;2023-02-20T05:49:04;6.68;;;2.13;;
21152;SDS011;10734;44.792;20.482;2023-02-20T05:51:31;5.50;;;1.85;;
21152;SDS011;10734;44.792;20.482;2023-02-20T05:53:59;4.55;;;1.90;;
21152;SDS011;10734;44.792;20.482;2023-02-20T05:56:26;6.10;;;3.00;;
21152;SDS011;10734;44.792;20.482;2023-02-20T05:58:53;5.63;;;2.17;;
21152;SDS011;10734;44.792;20.482;2023-02-20T06:01:20;4.68;;;2.60;;
21152;SDS011;10734;44.792;20.482;2023-02-20T06:03:47;4.53;;;2.00;;
21152;SDS011;10734;44.792;20.482;2023-02-20T06:06:14;8.75;;;2.30;;
21152;SDS011;10734;44.792;20.482;2023-02-20T06:08:41;15.88;;;4.45;;
21152;SDS011;10734;44.792;20.482;2023-02-20T06:11:08;8.32;;;3.00;;
21152;SDS011;10734;44.792;20.482;2023-02-20T06:13:35;7.50;;;1.75;;
21152;SDS011;10734;44.792;20.482;2023-02-20T06:16:02;6.38;;;2.53;;
21152;SDS011;10734;44.792;20.482;2023-02-20T06:18:28;5.10;;;2.20;;
21152;SDS011;10734;44.792;20.482;2023-02-20T06:20:55;6.72;;;2.10;;
21152;SDS011;10734;44.792;20.482;2023-02-20T06:23:22;7.20;;;2.67;;
21152;SDS011;10734;44.792;20.482;2023-02-20T06:25:48;7.60;;;3.08;;
21152;SDS011;10734;44.792;20.482;2023-02-20T06:28:15;7.72;;;2.42;;
21152;SDS011;10734;44.792;20.482;2023-02-20T06:30:41;6.22;;;2.20;;
21152;SDS011;10734;44.792;20.482;2023-02-20T06:33:08;5.38;;;2.20;;
21152;SDS011;10734;44.792;20.482;2023-02-20T06:35:34;3.92;;;1.95;;
21152;SDS011;10734;44.792;20.482;2023-02-20T06:38:01;4.90;;;2.30;;
21152;SDS011;10734;44.792;20.482;2023-02-20T06:40:27;5.60;;;2.35;;
21152;SDS011;10734;44.792;20.482;2023-02-20T06:42:54;7.15;;;2.65;;
21152;SDS011;10734;44.792;20.482;2023-02-20T06:45:20;5.70;;;3.00;;
21152;SDS011;10734;44.792;20.482;2023-02-20T06:47:47;8.50;;;2.75;;
21152;SDS011;10734;44.792;20.482;2023-02-20T06:50:13;4.53;;;2.30;;
21152;SDS011;10734;44.792;20.482;2023-02-20T06:52:40;9.38;;;2.90;;
21152;SDS011;10734;44.792;20.482;2023-02-20T06:55:06;5.32;;;2.50;;
21152;SDS011;10734;44.792;20.482;2023-02-20T06:57:33;6.15;;;2.22;;
21152;SDS011;10734;44.792;20.482;2023-02-20T06:59:59;4.10;;;2.03;;
21152;SDS011;10734;44.792;20.482;2023-02-20T07:02:26;7.10;;;3.00;;
21152;SDS011;10734;44.792;20.482;2023-02-20T07:04:52;5.18;;;2.80;;
21152;SDS011;10734;44.792;20.482;2023-02-20T07:07:19;6.18;;;2.80;;
21152;SDS011;10734;44.792;20.482;2023-02-20T07:09:45;4.50;;;2.15;;
21152;SDS011;10734;44.792;20.482;2023-02-20T07:12:12;3.90;;;2.45;;
21152;SDS011;10734;44.792;20.482;2023-02-20T07:14:38;3.90;;;2.20;;
21152;SDS011;10734;44.792;20.482;2023-02-20T07:17:05;7.22;;;2.70;;
21152;SDS011;10734;44.792;20.482;2023-02-20T07:19:31;8.23;;;3.80;;
21152;SDS011;10734;44.792;20.482;2023-02-20T07:21:58;8.32;;;2.92;;
21152;SDS011;10734;44.792;20.482;2023-02-20T07:24:24;2.80;;;2.13;;
21152;SDS011;10734;44.792;20.482;2023-02-20T07:26:51;15.73;;;2.70;;
21152;SDS011;10734;44.792;20.482;2023-02-20T07:29:17;4.15;;;2.20;;
21152;SDS011;10734;44.792;20.482;2023-02-20T07:31:44;7.13;;;2.67;;
21152;SDS011;10734;44.792;20.482;2023-02-20T07:34:11;7.43;;;2.90;;
21152;SDS011;10734;44.792;20.482;2023-02-20T07:36:37;8.65;;;2.42;;
21152;SDS011;10734;44.792;20.482;2023-02-20T07:39:04;3.85;;;2.22;;
21152;SDS011;10734;44.792;20.482;2023-02-20T07:41:33;3.55;;;2.33;;
21152;SDS011;10734;44.792;20.482;2023-02-20T07:44:01;4.60;;;2.17;;
21152;SDS011;10734;44.792;20.482;2023-02-20T07:46:27;10.35;;;4.40;;
21152;SDS011;10734;44.792;20.482;2023-02-20T07:49:02;4.38;;;1.88;;
21152;SDS011;10734;44.792;20.482;2023-02-20T07:51:29;4.47;;;2.47;;
21152;SDS011;10734;44.792;20.482;2023-02-20T07:53:56;6.85;;;2.58;;
21152;SDS011;10734;44.792;20.482;2023-02-20T07:56:23;5.28;;;2.50;;
21152;SDS011;10734;44.792;20.482;2023-02-20T07:58:49;3.72;;;2.28;;
21152;SDS011;10734;44.792;20.482;2023-02-20T08:01:16;4.07;;;2.08;;
21152;SDS011;10734;44.792;20.482;2023-02-20T08:03:43;4.20;;;2.03;;
21152;SDS011;10734;44.792;20.482;2023-02-20T08:06:09;6.60;;;2.70;;
21152;SDS011;10734;44.792;20.482;2023-02-20T08:08:36;9.77;;;2.38;;
21152;SDS011;10734;44.792;20.482;2023-02-20T08:11:03;5.13;;;3.20;;
21152;SDS011;10734;44.792;20.482;2023-02-20T08:16:01;5.07;;;2.30;;
21152;SDS011;10734;44.792;20.482;2023-02-20T08:18:28;3.90;;;2.30;;
21152;SDS011;10734;44.792;20.482;2023-02-20T08:20:54;4.53;;;2.10;;
21152;SDS011;10734;44.792;20.482;2023-02-20T08:23:21;4.80;;;1.92;;
21152;SDS011;10734;44.792;20.482;2023-02-20T08:25:48;7.80;;;2.35;;
21152;SDS011;10734;44.792;20.482;2023-02-20T08:28:14;5.45;;;2.15;;
21152;SDS011;10734;44.792;20.482;2023-02-20T08:30:41;7.68;;;2.60;;
21152;SDS011;10734;44.792;20.482;2023-02-20T08:33:07;12.75;;;3.30;;
21152;SDS011;10734;44.792;20.482;2023-02-20T08:35:34;8.80;;;3.28;;
21152;SDS011;10734;44.792;20.482;2023-02-20T08:38:01;10.05;;;3.50;;
21152;SDS011;10734;44.792;20.482;2023-02-20T08:40:28;17.23;;;7.07;;
21152;SDS011;10734;44.792;20.482;2023-02-20T08:42:55;5.57;;;3.22;;
21152;SDS011;10734;44.792;20.482;2023-02-20T08:45:21;5.50;;;3.78;;
21152;SDS011;10734;44.792;20.482;2023-02-20T08:47:49;5.82;;;3.72;;
21152;SDS011;10734;44.792;20.482;2023-02-20T08:50:16;8.20;;;3.00;;
21152;SDS011;10734;44.792;20.482;2023-02-20T08:52:43;3.90;;;2.50;;
21152;SDS011;10734;44.792;20.482;2023-02-20T08:55:10;4.35;;;2.42;;
21152;SDS011;10734;44.792;20.482;2023-02-20T08:57:37;6.13;;;3.03;;
21152;SDS011;10734;44.792;20.482;2023-02-20T09:00:04;4.93;;;2.50;;
21152;SDS011;10734;44.792;20.482;2023-02-20T09:02:31;5.40;;;3.42;;
21152;SDS011;10734;44.792;20.482;2023-02-20T09:04:57;8.30;;;2.70;;
21152;SDS011;10734;44.792;20.482;2023-02-20T09:07:24;7.05;;;2.70;;
21152;SDS011;10734;44.792;20.482;2023-02-20T09:09:50;9.48;;;3.08;;
21152;SDS011;10734;44.792;20.482;2023-02-20T09:12:17;5.50;;;2.92;;
21152;SDS011;10734;44.792;20.482;2023-02-20T09:14:44;8.80;;;2.90;;
21152;SDS011;10734;44.792;20.482;2023-02-20T09:17:11;5.95;;;3.15;;
21152;SDS011;10734;44.792;20.482;2023-02-20T09:19:37;4.82;;;3.25;;
21152;SDS011;10734;44.792;20.482;2023-02-20T09:22:04;8.60;;;3.88;;
21152;SDS011;10734;44.792;20.482;2023-02-20T09:24:30;8.25;;;3.75;;
21152;SDS011;10734;44.792;20.482;2023-02-20T09:27:01;9.05;;;4.25;;
21152;SDS011;10734;44.792;20.482;2023-02-20T09:29:28;11.65;;;4.22;;
21152;SDS011;10734;44.792;20.482;2023-02-20T09:31:54;8.75;;;4.40;;
21152;SDS011;10734;44.792;20.482;2023-02-20T09:34:21;9.65;;;4.00;;
21152;SDS011;10734;44.792;20.482;2023-02-20T09:36:48;6.68;;;2.92;;
21152;SDS011;10734;44.792;20.482;2023-02-20T09:39:14;7.28;;;2.80;;
21152;SDS011;10734;44.792;20.482;2023-02-20T09:46:58;3.47;;;1.88;;
21152;SDS011;10734;44.792;20.482;2023-02-20T09:49:29;7.03;;;2.30;;
21152;SDS011;10734;44.792;20.482;2023-02-20T09:51:59;5.15;;;2.35;;
21152;SDS011;10734;44.792;20.482;2023-02-20T09:54:29;15.13;;;2.13;;
21152;SDS011;10734;44.792;20.482;2023-02-20T09:56:58;4.32;;;1.83;;
21152;SDS011;10734;44.792;20.482;2023-02-20T09:59:27;7.18;;;2.17;;
21152;SDS011;10734;44.792;20.482;2023-02-20T10:01:56;10.13;;;3.10;;
21152;SDS011;10734;44.792;20.482;2023-02-20T10:04:30;5.90;;;2.05;;
21152;SDS011;10734;44.792;20.482;2023-02-20T10:09:55;7.97;;;2.92;;
21152;SDS011;10734;44.792;20.482;2023-02-20T10:12:37;7.00;;;2.55;;
21152;SDS011;10734;44.792;20.482;2023-02-20T10:26:45;4.47;;;1.70;;
21152;SDS011;10734;44.792;20.482;2023-02-20T10:29:14;8.73;;;2.15;;
21152;SDS011;10734;44.792;20.482;2023-02-20T10:31:50;3.58;;;2.13;;
21152;SDS011;10734;44.792;20.482;2023-02-20T10:34:19;8.70;;;1.75;;
21152;SDS011;10734;44.792;20.482;2023-02-20T10:36:55;5.07;;;2.00;;
21152;SDS011;10734;44.792;20.482;2023-02-20T10:39:27;2.85;;;1.52;;
21152;SDS011;10734;44.792;20.482;2023-02-20T10:41:57;4.47;;;2.17;;
21152;SDS011;10734;44.792;20.482;2023-02-20T10:44:35;10.65;;;3.10;;
21152;SDS011;10734;44.792;20.482;2023-02-20T10:47:21;7.20;;;3.38;;
21152;SDS011;10734;44.792;20.482;2023-02-20T10:49:54;5.72;;;2.40;;
21152;SDS011;10734;44.792;20.482;2023-02-20T10:52:23;82.60;;;37.08;;
21152;SDS011;10734;44.792;20.482;2023-02-20T10:58:03;3.90;;;2.30;;
21152;SDS011;10734;44.792;20.482;2023-02-20T11:00:38;9.15;;;3.47;;
21152;SDS011;10734;44.792;20.482;2023-02-20T11:03:07;7.28;;;2.75;;
21152;SDS011;10734;44.792;20.482;2023-02-20T11:05:37;6.05;;;2.20;;
21152;SDS011;10734;44.792;20.482;2023-02-20T11:08:06;9.90;;;4.00;;
21152;SDS011;10734;44.792;20.482;2023-02-20T11:10:32;13.63;;;3.50;;
21152;SDS011;10734;44.792;20.482;2023-02-20T11:13:00;14.82;;;5.35;;
21152;SDS011;10734;44.792;20.482;2023-02-20T11:15:28;11.95;;;4.93;;
21152;SDS011;10734;44.792;20.482;2023-02-20T11:17:56;9.55;;;2.15;;
21152;SDS011;10734;44.792;20.482;2023-02-20T11:23:45;5.40;;;3.03;;
21152;SDS011;10734;44.792;20.482;2023-02-20T11:28:42;6.85;;;2.33;;
21152;SDS011;10734;44.792;20.482;2023-02-20T11:31:09;3.78;;;2.35;;
21152;SDS011;10734;44.792;20.482;2023-02-20T11:33:36;8.35;;;2.42;;
21152;SDS011;10734;44.792;20.482;2023-02-20T11:38:34;10.00;;;2.70;;
21152;SDS011;10734;44.792;20.482;2023-02-20T11:43:30;4.53;;;1.95;;
21152;SDS011;10734;44.792;20.482;2023-02-20T11:51:49;4.93;;;1.50;;
21152;SDS011;10734;44.792;20.482;2023-02-20T11:54:22;5.25;;;1.80;;
21152;SDS011;10734;44.792;20.482;2023-02-20T11:59:36;3.28;;;1.48;;
21152;SDS011;10734;44.792;20.482;2023-02-20T12:04:37;3.10;;;1.60;;
21152;SDS011;10734;44.792;20.482;2023-02-20T12:07:17;9.70;;;2.10;;
21152;SDS011;10734;44.792;20.482;2023-02-20T12:09:48;2.50;;;1.20;;
21152;SDS011;10734;44.792;20.482;2023-02-20T12:12:18;3.35;;;1.58;;
21152;SDS011;10734;44.792;20.482;2023-02-20T12:14:49;2.42;;;1.33;;
21152;SDS011;10734;44.792;20.482;2023-02-20T12:22:46;3.45;;;1.70;;
21152;SDS011;10734;44.792;20.482;2023-02-20T12:25:43;2.78;;;1.38;;
21152;SDS011;10734;44.792;20.482;2023-02-20T12:28:42;1.83;;;1.40;;
21152;SDS011;10734;44.792;20.482;2023-02-20T12:31:24;2.05;;;1.70;;
21152;SDS011;10734;44.792;20.482;2023-02-20T12:39:53;2.90;;;1.70;;
21152;SDS011;10734;44.792;20.482;2023-02-20T12:45:14;2.30;;;1.48;;
21152;SDS011;10734;44.792;20.482;2023-02-20T12:47:48;3.78;;;2.03;;
21152;SDS011;10734;44.792;20.482;2023-02-20T12:53:32;4.38;;;2.97;;
21152;SDS011;10734;44.792;20.482;2023-02-20T12:59:25;4.28;;;2.50;;
21152;SDS011;10734;44.792;20.482;2023-02-20T13:01:59;6.68;;;2.33;;
21152;SDS011;10734;44.792;20.482;2023-02-20T13:04:44;8.32;;;2.63;;
21152;SDS011;10734;44.792;20.482;2023-02-20T13:07:23;6.85;;;1.88;;
21152;SDS011;10734;44.792;20.482;2023-02-20T13:10:06;2.78;;;2.10;;
21152;SDS011;10734;44.792;20.482;2023-02-20T13:12:39;5.35;;;2.47;;
21152;SDS011;10734;44.792;20.482;2023-02-20T13:17:56;4.93;;;1.95;;
21152;SDS011;10734;44.792;20.482;2023-02-20T13:20:46;3.65;;;2.22;;
21152;SDS011;10734;44.792;20.482;2023-02-20T13:25:45;3.85;;;2.53;;
21152;SDS011;10734;44.792;20.482;2023-02-20T13:33:31;4.53;;;2.65;;
21152;SDS011;10734;44.792;20.482;2023-02-20T13:35:59;4.38;;;2.80;;
21152;SDS011;10734;44.792;20.482;2023-02-20T13:38:26;5.63;;;3.05;;
21152;SDS011;10734;44.792;20.482;2023-02-20T13:53:40;8.35;;;2.42;;
21152;SDS011;10734;44.792;20.482;2023-02-20T13:56:18;2.75;;;1.90;;
21152;SDS011;10734;44.792;20.482;2023-02-20T13:59:09;4.60;;;2.63;;
21152;SDS011;10734;44.792;20.482;2023-02-20T14:04:23;3.45;;;2.13;;
21152;SDS011;10734;44.792;20.482;2023-02-20T14:06:51;3.78;;;2.10;;
21152;SDS011;10734;44.792;20.482;2023-02-20T14:09:27;4.50;;;2.25;;
21152;SDS011;10734;44.792;20.482;2023-02-20T14:12:03;4.13;;;2.33;;
21152;SDS011;10734;44.792;20.482;2023-02-20T14:14:34;6.68;;;2.63;;
21152;SDS011;10734;44.792;20.482;2023-02-20T14:17:07;2.88;;;2.20;;
21152;SDS011;10734;44.792;20.482;2023-02-20T14:19:42;4.00;;;2.15;;
21152;SDS011;10734;44.792;20.482;2023-02-20T14:27:38;4.50;;;2.42;;
21152;SDS011;10734;44.792;20.482;2023-02-20T14:30:07;3.40;;;1.95;;
21152;SDS011;10734;44.792;20.482;2023-02-20T14:32:34;3.72;;;2.30;;
21152;SDS011;10734;44.792;20.482;2023-02-20T14:35:12;4.82;;;2.70;;
21152;SDS011;10734;44.792;20.482;2023-02-20T14:40:56;4.60;;;2.90;;
21152;SDS011;10734;44.792;20.482;2023-02-20T14:43:26;4.07;;;2.03;;
21152;SDS011;10734;44.792;20.482;2023-02-20T14:45:58;9.95;;;2.22;;
21152;SDS011;10734;44.792;20.482;2023-02-20T14:48:27;4.50;;;2.10;;
21152;SDS011;10734;44.792;20.482;2023-02-20T14:51:04;5.70;;;2.70;;
21152;SDS011;10734;44.792;20.482;2023-02-20T14:53:58;4.40;;;2.63;;
21152;SDS011;10734;44.792;20.482;2023-02-20T14:56:26;5.25;;;2.05;;
21152;SDS011;10734;44.792;20.482;2023-02-20T14:58:54;5.50;;;2.67;;
21152;SDS011;10734;44.792;20.482;2023-02-20T15:04:00;7.18;;;2.10;;
21152;SDS011;10734;44.792;20.482;2023-02-20T15:06:34;9.23;;;2.80;;
21152;SDS011;10734;44.792;20.482;2023-02-20T15:09:03;5.95;;;3.05;;
21152;SDS011;10734;44.792;20.482;2023-02-20T15:11:51;4.15;;;2.25;;
21152;SDS011;10734;44.792;20.482;2023-02-20T15:14:26;4.80;;;2.33;;
21152;SDS011;10734;44.792;20.482;2023-02-20T15:19:50;5.57;;;2.72;;
21152;SDS011;10734;44.792;20.482;2023-02-20T15:22:25;7.18;;;2.88;;
21152;SDS011;10734;44.792;20.482;2023-02-20T15:33:36;8.57;;;4.28;;
21152;SDS011;10734;44.792;20.482;2023-02-20T15:36:24;11.40;;;4.72;;
21152;SDS011;10734;44.792;20.482;2023-02-20T15:38:52;10.52;;;4.32;;
21152;SDS011;10734;44.792;20.482;2023-02-20T15:41:22;5.60;;;3.35;;
21152;SDS011;10734;44.792;20.482;2023-02-20T15:43:49;7.28;;;2.95;;
21152;SDS011;10734;44.792;20.482;2023-02-20T15:46:17;9.60;;;3.65;;
21152;SDS011;10734;44.792;20.482;2023-02-20T15:48:45;11.80;;;3.88;;
21152;SDS011;10734;44.792;20.482;2023-02-20T15:51:13;6.95;;;2.78;;
21152;SDS011;10734;44.792;20.482;2023-02-20T15:53:45;11.77;;;6.65;;
21152;SDS011;10734;44.792;20.482;2023-02-20T15:56:13;19.73;;;10.52;;
21152;SDS011;10734;44.792;20.482;2023-02-20T15:58:41;10.63;;;5.57;;
21152;SDS011;10734;44.792;20.482;2023-02-20T16:01:09;14.77;;;7.78;;
21152;SDS011;10734;44.792;20.482;2023-02-20T16:03:36;11.70;;;4.95;;
21152;SDS011;10734;44.792;20.482;2023-02-20T16:06:16;15.80;;;5.75;;
21152;SDS011;10734;44.792;20.482;2023-02-20T16:08:45;10.98;;;6.70;;
21152;SDS011;10734;44.792;20.482;2023-02-20T16:11:12;11.43;;;6.28;;
21152;SDS011;10734;44.792;20.482;2023-02-20T16:13:40;12.43;;;6.32;;
21152;SDS011;10734;44.792;20.482;2023-02-20T16:18:50;32.15;;;13.18;;
21152;SDS011;10734;44.792;20.482;2023-02-20T16:21:20;29.63;;;14.63;;
21152;SDS011;10734;44.792;20.482;2023-02-20T16:23:47;27.60;;;13.23;;
21152;SDS011;10734;44.792;20.482;2023-02-20T16:26:26;69.60;;;38.60;;
21152;SDS011;10734;44.792;20.482;2023-02-20T16:28:55;23.40;;;13.00;;
21152;SDS011;10734;44.792;20.482;2023-02-20T16:34:23;36.85;;;18.58;;
21152;SDS011;10734;44.792;20.482;2023-02-20T16:36:51;51.05;;;22.23;;
21152;SDS011;10734;44.792;20.482;2023-02-20T16:39:19;45.15;;;22.70;;
21152;SDS011;10734;44.792;20.482;2023-02-20T16:41:52;56.70;;;26.23;;
21152;SDS011;10734;44.792;20.482;2023-02-20T16:44:31;68.72;;;41.65;;
21152;SDS011;10734;44.792;20.482;2023-02-20T16:46:59;65.22;;;38.08;;
21152;SDS011;10734;44.792;20.482;2023-02-20T16:49:26;70.15;;;40.30;;
21152;SDS011;10734;44.792;20.482;2023-02-20T16:51:53;77.03;;;47.58;;
21152;SDS011;10734;44.792;20.482;2023-02-20T16:54:27;179.90;;;138.30;;
21152;SDS011;10734;44.792;20.482;2023-02-20T16:56:54;317.55;;;228.98;;
21152;SDS011;10734;44.792;20.482;2023-02-20T16:59:20;569.65;;;394.40;;
21152;SDS011;10734;44.792;20.482;2023-02-20T17:01:48;833.88;;;571.47;;
21152;SDS011;10734;44.792;20.482;2023-02-20T17:04:17;722.70;;;502.17;;
21152;SDS011;10734;44.792;20.482;2023-02-20T17:06:45;438.00;;;285.60;;
21152;SDS011;10734;44.792;20.482;2023-02-20T17:09:12;174.95;;;86.68;;
21152;SDS011;10734;44.792;20.482;2023-02-20T17:11:38;131.30;;;61.15;;
21152;SDS011;10734;44.792;20.482;2023-02-20T17:14:05;87.72;;;43.80;;
21152;SDS011;10734;44.792;20.482;2023-02-20T17:16:31;93.38;;;45.40;;
21152;SDS011;10734;44.792;20.482;2023-02-20T17:18:58;147.27;;;67.57;;